createdAt,value
2023-09-01T00:00:32.304Z,3.40
2023-09-01T00:02:57.727Z,2.40
2023-09-01T00:05:09.528Z,2.75
2023-09-01T00:07:17.887Z,2.70
2023-09-01T00:09:26.276Z,2.80
2023-09-01T00:11:34.348Z,3.00
2023-09-01T00:13:42.892Z,3.30
2023-09-01T00:15:51.082Z,3.05
2023-09-01T00:17:59.370Z,3.45
2023-09-01T00:20:11.839Z,3.83
2023-09-01T00:22:20.146Z,3.42
2023-09-01T00:24:28.236Z,3.03
2023-09-01T00:26:36.325Z,3.38
2023-09-01T00:28:45.786Z,2.95
2023-09-01T00:30:56.776Z,3.25
2023-09-01T00:33:05.538Z,2.67
2023-09-01T00:35:17.983Z,3.40
2023-09-01T00:37:26.405Z,2.95
2023-09-01T00:39:35.233Z,3.10
2023-09-01T00:41:43.273Z,3.30
2023-09-01T00:43:51.546Z,2.80
2023-09-01T00:45:59.968Z,2.65
2023-09-01T00:48:11.680Z,2.85
2023-09-01T00:50:22.834Z,2.75
2023-09-01T00:52:31.489Z,2.85
2023-09-01T00:54:39.622Z,2.63
2023-09-01T00:56:48.819Z,2.60
2023-09-01T00:58:57.126Z,2.88
2023-09-01T01:01:06.226Z,2.58
2023-09-01T01:03:16.327Z,2.33
2023-09-01T01:05:35.325Z,2.50
2023-09-01T01:07:49.838Z,2.70
2023-09-01T01:10:07.822Z,2.05
2023-09-01T01:12:25.005Z,2.60
2023-09-01T01:14:40.569Z,2.22
2023-09-01T01:16:48.964Z,2.00
2023-09-01T01:18:58.611Z,2.40
2023-09-01T01:21:15.547Z,2.40
2023-09-01T01:23:27.276Z,1.85
2023-09-01T01:25:35.516Z,1.75
2023-09-01T01:27:47.189Z,1.80
2023-09-01T01:29:55.297Z,1.90
2023-09-01T01:32:04.330Z,2.35
2023-09-01T01:34:21.806Z,1.73
2023-09-01T01:36:37.156Z,1.65
2023-09-01T01:38:52.421Z,2.08
2023-09-01T01:41:11.125Z,2.10
2023-09-01T01:43:23.487Z,1.70
2023-09-01T01:45:33.215Z,2.03
2023-09-01T01:47:41.956Z,2.17
2023-09-01T01:49:50.754Z,2.40
2023-09-01T01:51:58.928Z,2.00
2023-09-01T01:54:11.136Z,1.65
2023-09-01T01:56:19.962Z,2.40
2023-09-01T01:58:28.502Z,1.85
2023-09-01T02:00:36.978Z,2.13
2023-09-01T02:02:47.645Z,2.03
2023-09-01T02:04:56.158Z,2.10
2023-09-01T02:07:06.837Z,2.30
2023-09-01T02:09:19.487Z,2.10
2023-09-01T02:11:28.560Z,2.28
2023-09-01T02:13:36.657Z,1.90
2023-09-01T02:15:45.064Z,2.00
2023-09-01T02:17:53.277Z,1.92
2023-09-01T02:20:01.686Z,1.70
2023-09-01T02:22:09.985Z,1.58
2023-09-01T02:24:18.466Z,1.90
2023-09-01T02:26:28.072Z,1.92
2023-09-01T02:28:36.292Z,1.70
2023-09-01T02:30:44.756Z,1.90
2023-09-01T02:32:53.170Z,1.70
2023-09-01T02:35:02.113Z,1.70
2023-09-01T02:37:10.339Z,1.30
2023-09-01T02:39:22.468Z,2.00
2023-09-01T02:41:28.393Z,2.30
2023-09-01T02:43:36.479Z,1.83
2023-09-01T02:45:44.749Z,1.70
2023-09-01T02:47:53.028Z,1.50
2023-09-01T02:49:58.668Z,1.80
2023-09-01T02:52:07.769Z,1.77
2023-09-01T02:54:15.988Z,1.30
2023-09-01T02:56:26.737Z,1.42
2023-09-01T02:58:37.459Z,1.52
2023-09-01T03:00:48.048Z,1.40
2023-09-01T03:02:56.438Z,2.03
2023-09-01T03:05:06.275Z,2.03
2023-09-01T03:07:14.465Z,1.90
2023-09-01T03:09:22.727Z,1.80
2023-09-01T03:11:34.706Z,1.55
2023-09-01T03:13:44.769Z,1.70
2023-09-01T03:15:53.100Z,1.80
2023-09-01T03:18:02.240Z,1.33
2023-09-01T03:20:13.830Z,1.60
2023-09-01T03:22:22.136Z,1.55
2023-09-01T03:24:30.921Z,1.20
2023-09-01T03:26:42.091Z,1.95
2023-09-01T03:28:52.756Z,1.77
2023-09-01T03:31:01.155Z,1.80
2023-09-01T03:33:12.236Z,2.08
2023-09-01T03:35:20.730Z,1.35
2023-09-01T03:37:31.730Z,1.55
2023-09-01T03:39:40.390Z,2.03
2023-09-01T03:41:51.687Z,1.60
2023-09-01T03:44:00.226Z,1.45
2023-09-01T03:46:10.006Z,1.25
2023-09-01T03:48:19.521Z,1.25
2023-09-01T03:50:28.459Z,1.50
2023-09-01T03:52:37.365Z,1.33
2023-09-01T03:54:46.306Z,1.70
2023-09-01T03:56:57.437Z,1.83
2023-09-01T03:59:03.090Z,1.50
2023-09-01T04:01:13.933Z,1.70
2023-09-01T04:03:23.983Z,1.83
2023-09-01T04:05:32.375Z,1.70
2023-09-01T04:07:40.559Z,1.58
2023-09-01T04:09:48.915Z,1.38
2023-09-01T04:11:59.882Z,1.27
2023-09-01T04:14:10.502Z,1.60
2023-09-01T04:16:20.340Z,1.33
2023-09-01T04:18:28.705Z,1.52
2023-09-01T04:20:36.934Z,1.55
2023-09-01T04:22:45.371Z,1.48
2023-09-01T04:24:53.796Z,1.40
2023-09-01T04:27:06.897Z,1.50
2023-09-01T04:29:15.961Z,1.08
2023-09-01T04:31:29.535Z,1.83
2023-09-01T04:33:40.046Z,2.17
2023-09-01T04:35:48.564Z,1.77
2023-09-01T04:37:56.730Z,1.40
2023-09-01T04:40:07.530Z,1.70
2023-09-01T04:42:19.761Z,1.52
2023-09-01T04:44:30.934Z,1.50
2023-09-01T04:46:45.604Z,1.70
2023-09-01T04:48:54.432Z,1.85
2023-09-01T04:51:04.338Z,1.55
2023-09-01T04:53:15.842Z,1.50
2023-09-01T04:55:26.518Z,1.70
2023-09-01T04:57:37.467Z,1.35
2023-09-01T04:59:46.686Z,1.58
2023-09-01T05:01:55.917Z,1.17
2023-09-01T05:04:08.211Z,1.58
2023-09-01T05:06:25.102Z,1.13
2023-09-01T05:08:35.661Z,1.50
2023-09-01T05:10:45.079Z,1.60
2023-09-01T05:12:59.318Z,1.40
2023-09-01T05:15:09.311Z,1.58
2023-09-01T05:17:17.315Z,1.38
2023-09-01T05:19:58.640Z,1.80
2023-09-01T05:22:36.026Z,1.23
2023-09-01T05:24:45.507Z,1.42
2023-09-01T05:26:57.622Z,1.05
2023-09-01T05:29:10.519Z,1.17
2023-09-01T05:31:19.280Z,1.55
2023-09-01T05:33:30.510Z,1.40
2023-09-01T05:35:39.633Z,1.35
2023-09-01T05:37:48.375Z,1.42
2023-09-01T05:39:58.415Z,1.25
2023-09-01T05:42:11.646Z,1.85
2023-09-01T05:44:22.640Z,1.70
2023-09-01T05:46:33.600Z,1.30
2023-09-01T05:48:43.330Z,1.40
2023-09-01T05:50:55.642Z,1.67
2023-09-01T05:53:05.432Z,1.58
2023-09-01T05:55:15.243Z,1.80
2023-09-01T05:57:23.637Z,1.30
2023-09-01T05:59:34.658Z,1.13
2023-09-01T06:01:42.709Z,1.30
2023-09-01T06:03:50.967Z,1.65
2023-09-01T06:05:59.320Z,1.63
2023-09-01T06:08:07.888Z,1.90
2023-09-01T06:10:20.768Z,1.75
2023-09-01T06:12:29.891Z,1.48
2023-09-01T06:14:40.843Z,1.60
2023-09-01T06:16:55.116Z,1.20
2023-09-01T06:19:04.465Z,1.20
2023-09-01T06:21:11.855Z,1.60
2023-09-01T06:23:19.903Z,1.73
2023-09-01T06:25:28.326Z,1.45
2023-09-01T06:27:38.690Z,1.27
2023-09-01T06:29:49.644Z,1.38
2023-09-01T06:31:57.874Z,1.35
2023-09-01T06:34:05.834Z,1.40
2023-09-01T06:36:14.722Z,1.50
2023-09-01T06:38:23.448Z,1.20
2023-09-01T06:40:32.957Z,1.55
2023-09-01T06:42:42.114Z,1.30
2023-09-01T06:44:54.777Z,1.38
2023-09-01T06:47:05.181Z,1.85
2023-09-01T06:49:14.236Z,1.30
2023-09-01T06:51:22.163Z,1.77
2023-09-01T06:53:30.370Z,1.85
2023-09-01T06:55:41.807Z,1.05
2023-09-01T06:57:51.776Z,1.25
2023-09-01T07:00:03.779Z,1.95
2023-09-01T07:02:11.808Z,1.20
2023-09-01T07:04:21.024Z,1.63
2023-09-01T07:06:29.203Z,1.70
2023-09-01T07:08:34.663Z,1.20
2023-09-01T07:10:43.993Z,1.23
2023-09-01T07:12:54.422Z,1.35
2023-09-01T07:15:04.080Z,1.70
2023-09-01T07:17:15.228Z,1.80
2023-09-01T07:19:23.397Z,1.75
2023-09-01T07:21:31.346Z,1.80
2023-09-01T07:23:43.182Z,1.60
2023-09-01T07:26:02.420Z,2.53
2023-09-01T07:28:12.550Z,2.38
2023-09-01T07:30:25.208Z,2.15
2023-09-01T07:32:36.221Z,2.20
2023-09-01T07:34:44.208Z,2.00
2023-09-01T07:36:52.494Z,2.35
2023-09-01T07:39:03.437Z,1.80
2023-09-01T07:41:13.870Z,2.38
2023-09-01T07:43:21.855Z,2.40
2023-09-01T07:45:37.817Z,1.52
2023-09-01T07:47:51.414Z,2.25
2023-09-01T07:50:05.489Z,2.00
2023-09-01T07:52:14.386Z,2.35
2023-09-01T07:54:24.805Z,2.58
2023-09-01T07:56:38.512Z,2.45
2023-09-01T07:58:46.837Z,2.55
2023-09-01T08:00:59.937Z,3.35
2023-09-01T08:03:12.655Z,2.47
2023-09-01T08:05:23.180Z,2.92
2023-09-01T08:07:33.456Z,2.80
2023-09-01T08:09:43.612Z,2.80
2023-09-01T08:11:54.026Z,2.35
2023-09-01T08:14:02.333Z,3.22
2023-09-01T08:16:14.347Z,2.67
2023-09-01T08:18:31.881Z,2.85
2023-09-01T08:20:41.412Z,3.13
2023-09-01T08:22:50.051Z,2.65
2023-09-01T08:24:58.147Z,3.47
2023-09-01T08:27:09.893Z,2.60
2023-09-01T08:29:18.423Z,2.53
2023-09-01T08:31:29.659Z,2.35
2023-09-01T08:33:37.897Z,2.38
2023-09-01T08:35:46.827Z,2.55
2023-09-01T08:37:55.338Z,2.05
2023-09-01T08:40:06.451Z,1.77
2023-09-01T08:42:18.201Z,2.58
2023-09-01T08:44:27.597Z,2.25
2023-09-01T08:46:42.545Z,2.30
2023-09-01T08:48:51.035Z,2.25
2023-09-01T08:51:00.897Z,1.92
2023-09-01T08:53:09.995Z,1.63
2023-09-01T08:55:18.594Z,1.35
2023-09-01T08:57:28.642Z,1.10
2023-09-01T08:59:38.474Z,0.90
2023-09-01T09:01:51.982Z,1.00
2023-09-01T09:04:00.168Z,1.02
2023-09-01T09:06:08.562Z,0.90
2023-09-01T09:08:18.935Z,1.05
2023-09-01T09:10:39.486Z,0.90
2023-09-01T09:12:49.178Z,1.25
2023-09-01T09:14:59.726Z,0.93
2023-09-01T09:17:10.870Z,1.00
2023-09-01T09:19:20.718Z,0.90
2023-09-01T09:21:31.026Z,1.23
2023-09-01T09:23:47.045Z,0.70
2023-09-01T09:25:55.324Z,0.83
2023-09-01T09:28:04.851Z,1.00
2023-09-01T09:30:14.572Z,0.87
2023-09-01T09:32:28.079Z,1.13
2023-09-01T09:34:36.693Z,0.60
2023-09-01T09:36:42.061Z,1.03
2023-09-01T09:38:51.252Z,0.93
2023-09-01T09:41:01.401Z,1.07
2023-09-01T09:43:13.518Z,0.83
2023-09-01T09:45:33.698Z,0.70
2023-09-01T09:47:44.899Z,1.10
2023-09-01T09:49:56.197Z,0.70
2023-09-01T09:52:06.174Z,1.10
2023-09-01T09:54:17.138Z,1.10
2023-09-01T09:56:36.181Z,1.10
2023-09-01T09:58:49.563Z,1.00
2023-09-01T10:01:04.835Z,0.90
2023-09-01T10:03:15.984Z,1.10
2023-09-01T10:05:35.818Z,0.90
2023-09-01T10:07:47.160Z,0.77
2023-09-01T10:09:57.116Z,1.40
2023-09-01T10:12:06.135Z,0.90
2023-09-01T10:14:16.255Z,0.87
2023-09-01T10:16:24.676Z,1.07
2023-09-01T10:18:39.329Z,0.90
2023-09-01T10:20:50.028Z,1.00
2023-09-01T10:22:58.364Z,1.00
2023-09-01T10:25:20.920Z,1.37
2023-09-01T10:27:29.474Z,0.87
2023-09-01T10:29:39.056Z,0.97
2023-09-01T10:31:49.198Z,0.97
2023-09-01T10:34:15.859Z,0.87
2023-09-01T10:36:25.186Z,1.00
2023-09-01T10:38:42.349Z,0.90
2023-09-01T10:40:52.549Z,0.97
2023-09-01T10:43:01.272Z,1.00
2023-09-01T10:45:13.571Z,1.07
2023-09-01T10:47:57.959Z,1.00
2023-09-01T10:50:13.628Z,1.10
2023-09-01T10:52:21.648Z,0.87
2023-09-01T10:54:44.773Z,1.00
2023-09-01T10:57:03.493Z,1.00
2023-09-01T10:59:11.699Z,0.93
2023-09-01T11:01:29.895Z,1.10
2023-09-01T11:03:39.761Z,0.70
2023-09-01T11:05:59.436Z,1.13
2023-09-01T11:08:14.358Z,1.27
2023-09-01T11:10:26.814Z,1.17
2023-09-01T11:12:36.087Z,0.90
2023-09-01T11:14:55.711Z,1.60
2023-09-01T11:17:05.308Z,0.97
2023-09-01T11:19:14.178Z,1.30
2023-09-01T11:21:25.747Z,1.33
2023-09-01T11:23:34.569Z,1.10
2023-09-01T11:25:45.282Z,1.03
2023-09-01T11:27:55.092Z,1.27
2023-09-01T11:30:05.653Z,1.13
2023-09-01T11:32:13.995Z,1.17
2023-09-01T11:34:22.860Z,1.03
2023-09-01T11:36:34.113Z,6.93
2023-09-01T11:38:45.523Z,5.37
2023-09-01T11:40:56.495Z,3.60
2023-09-01T11:43:07.458Z,1.53
2023-09-01T11:45:16.086Z,3.37
2023-09-01T11:47:27.114Z,1.83
2023-09-01T11:49:37.551Z,6.47
2023-09-01T11:51:48.376Z,3.13
2023-09-01T11:53:57.694Z,1.53
2023-09-01T11:56:22.410Z,3.83
2023-09-01T11:58:49.153Z,2.97
2023-09-01T12:01:01.449Z,1.07
2023-09-01T12:03:12.141Z,0.90
2023-09-01T12:05:30.298Z,1.00
2023-09-01T12:07:41.164Z,0.77
2023-09-01T12:09:49.256Z,0.80
2023-09-01T12:12:01.839Z,0.93
2023-09-01T12:14:23.971Z,0.90
2023-09-01T12:16:34.429Z,0.70
2023-09-01T12:18:45.744Z,0.87
2023-09-01T12:20:52.890Z,0.70
2023-09-01T12:23:04.191Z,0.90
2023-09-01T12:25:13.989Z,0.77
2023-09-01T12:27:22.303Z,1.10
2023-09-01T12:29:30.417Z,0.60
2023-09-01T12:31:38.943Z,1.10
2023-09-01T12:33:47.218Z,0.93
2023-09-01T12:35:54.528Z,1.00
2023-09-01T12:38:05.545Z,1.00
2023-09-01T12:40:15.176Z,0.70
2023-09-01T12:42:23.279Z,0.60
2023-09-01T12:44:31.939Z,0.83
2023-09-01T12:46:42.693Z,1.00
2023-09-01T12:48:50.817Z,0.70
2023-09-01T12:50:58.898Z,0.83
2023-09-01T12:53:09.668Z,0.90
2023-09-01T12:55:17.630Z,0.90
2023-09-01T12:57:25.841Z,0.80
2023-09-01T12:59:33.924Z,0.90
2023-09-01T13:01:42.528Z,0.90
2023-09-01T13:03:50.597Z,0.70
2023-09-01T13:05:59.563Z,1.03
2023-09-01T13:08:10.626Z,0.83
2023-09-01T13:10:16.410Z,0.73
2023-09-01T13:12:24.545Z,0.53
2023-09-01T13:14:32.534Z,0.70
2023-09-01T13:16:40.581Z,1.00
2023-09-01T13:18:48.570Z,1.00
2023-09-01T13:20:56.720Z,0.90
2023-09-01T13:23:04.779Z,0.90
2023-09-01T13:25:16.008Z,0.57
2023-09-01T13:27:23.972Z,0.87
2023-09-01T13:29:32.128Z,0.60
2023-09-01T13:31:40.557Z,1.07
2023-09-01T13:33:48.674Z,0.50
2023-09-01T13:35:57.688Z,0.87
2023-09-01T13:38:06.428Z,0.90
2023-09-01T13:40:17.565Z,0.63
2023-09-01T13:42:24.030Z,0.87
2023-09-01T13:44:32.344Z,0.90
2023-09-01T13:46:40.569Z,0.70
2023-09-01T13:48:46.392Z,0.70
2023-09-01T13:50:57.584Z,0.60
2023-09-01T13:53:05.672Z,0.90
2023-09-01T13:55:16.947Z,0.70
2023-09-01T13:57:29.579Z,0.97
2023-09-01T13:59:38.016Z,0.73
2023-09-01T14:01:46.107Z,0.80
2023-09-01T14:03:54.578Z,0.83
2023-09-01T14:06:03.689Z,0.80
2023-09-01T14:08:11.893Z,0.83
2023-09-01T14:10:23.797Z,0.73
2023-09-01T14:12:32.081Z,0.83
2023-09-01T14:14:40.225Z,0.70
2023-09-01T14:16:48.375Z,0.80
2023-09-01T14:19:02.691Z,0.90
2023-09-01T14:21:13.361Z,0.83
2023-09-01T14:23:21.858Z,0.77
2023-09-01T14:25:32.612Z,0.80
2023-09-01T14:27:40.645Z,0.70
2023-09-01T14:29:48.528Z,1.03
2023-09-01T14:31:56.614Z,0.90
2023-09-01T14:34:04.689Z,0.77
2023-09-01T14:36:14.903Z,0.83
2023-09-01T14:38:23.689Z,0.83
2023-09-01T14:40:34.517Z,0.60
2023-09-01T14:42:42.664Z,1.00
2023-09-01T14:44:50.840Z,0.70
2023-09-01T14:46:58.830Z,0.77
2023-09-01T14:49:08.400Z,0.90
2023-09-01T14:51:18.606Z,1.10
2023-09-01T14:53:26.728Z,0.93
2023-09-01T14:55:37.441Z,0.73
2023-09-01T14:57:45.701Z,0.87
2023-09-01T14:59:54.058Z,0.90
2023-09-01T15:02:05.723Z,1.10
2023-09-01T15:04:13.966Z,0.97
2023-09-01T15:06:21.968Z,0.70
2023-09-01T15:08:29.987Z,1.00
2023-09-01T15:10:40.624Z,0.80
2023-09-01T15:12:48.803Z,0.90
2023-09-01T15:14:57.114Z,1.00
2023-09-01T15:17:05.601Z,1.10
2023-09-01T15:19:14.396Z,1.30
2023-09-01T15:21:22.415Z,1.00
2023-09-01T15:23:30.858Z,0.90
2023-09-01T15:25:39.899Z,1.00
2023-09-01T15:27:48.096Z,0.77
2023-09-01T15:29:56.172Z,0.73
2023-09-01T15:32:04.623Z,0.97
2023-09-01T15:34:14.069Z,0.80
2023-09-01T15:36:23.505Z,0.80
2023-09-01T15:38:34.609Z,1.00
2023-09-01T15:40:45.578Z,0.90
2023-09-01T15:42:58.077Z,1.57
2023-09-01T15:45:07.858Z,0.90
2023-09-01T15:47:16.055Z,1.03
2023-09-01T15:49:25.119Z,1.00
2023-09-01T15:51:34.225Z,0.80
2023-09-01T15:53:43.887Z,0.83
2023-09-01T15:55:56.793Z,0.90
2023-09-01T15:58:06.072Z,1.43
2023-09-01T16:00:15.563Z,1.30
2023-09-01T16:02:24.252Z,1.20
2023-09-01T16:04:32.915Z,1.20
2023-09-01T16:06:41.354Z,1.00
2023-09-01T16:08:49.613Z,1.03
2023-09-01T16:11:00.306Z,1.20
2023-09-01T16:13:08.559Z,1.30
2023-09-01T16:15:16.525Z,1.00
2023-09-01T16:17:25.158Z,0.97
2023-09-01T16:19:33.492Z,1.00
2023-09-01T16:21:43.789Z,1.10
2023-09-01T16:23:52.876Z,1.40
2023-09-01T16:26:04.538Z,1.10
2023-09-01T16:28:13.281Z,1.10
2023-09-01T16:30:21.485Z,1.10
2023-09-01T16:32:27.831Z,1.10
2023-09-01T16:34:35.881Z,1.00
2023-09-01T16:36:44.230Z,1.20
2023-09-01T16:38:54.059Z,1.27
2023-09-01T16:41:05.589Z,0.83
2023-09-01T16:43:10.928Z,1.00
2023-09-01T16:45:19.374Z,1.30
2023-09-01T16:47:27.449Z,1.40
2023-09-01T16:49:36.896Z,0.97
2023-09-01T16:51:45.033Z,0.93
2023-09-01T16:53:53.322Z,1.20
2023-09-01T16:56:06.760Z,0.90
2023-09-01T16:58:15.261Z,1.03
2023-09-01T17:00:23.520Z,1.00
2023-09-01T17:02:32.728Z,1.00
2023-09-01T17:04:41.079Z,0.90
2023-09-01T17:06:50.136Z,1.10
2023-09-01T17:08:59.501Z,1.13
2023-09-01T17:11:10.308Z,1.07
2023-09-01T17:13:18.994Z,1.40
2023-09-01T17:15:27.574Z,0.80
2023-09-01T17:17:33.601Z,0.90
2023-09-01T17:19:41.966Z,1.03
2023-09-01T17:21:50.106Z,1.10
2023-09-01T17:23:58.129Z,1.00
2023-09-01T17:26:06.248Z,1.17
2023-09-01T17:28:14.278Z,1.37
2023-09-01T17:30:22.580Z,1.40
2023-09-01T17:32:37.656Z,1.23
2023-09-01T17:34:46.125Z,1.10
2023-09-01T17:36:54.210Z,1.80
2023-09-01T17:39:02.156Z,1.27
2023-09-01T17:41:10.552Z,1.50
2023-09-01T17:43:23.004Z,1.50
2023-09-01T17:45:28.411Z,1.70
2023-09-01T17:47:36.753Z,1.50
2023-09-01T17:49:45.387Z,1.58
2023-09-01T17:51:53.439Z,1.45
2023-09-01T17:54:01.523Z,1.83
2023-09-01T17:56:09.471Z,1.23
2023-09-01T17:58:20.608Z,1.38
2023-09-01T18:00:26.085Z,1.90
2023-09-01T18:02:42.273Z,2.00
2023-09-01T18:04:50.922Z,1.90
2023-09-01T18:07:02.640Z,1.80
2023-09-01T18:09:11.504Z,1.80
2023-09-01T18:11:21.802Z,1.70
2023-09-01T18:13:33.929Z,3.30
2023-09-01T18:15:43.413Z,2.83
2023-09-01T18:17:53.038Z,3.03
2023-09-01T18:20:02.690Z,2.60
2023-09-01T18:22:11.211Z,2.25
2023-09-01T18:24:26.161Z,1.80
2023-09-01T18:26:36.630Z,2.03
2023-09-01T18:28:49.296Z,1.67
2023-09-01T18:30:57.476Z,1.20
2023-09-01T18:33:11.521Z,1.92
2023-09-01T18:35:23.773Z,3.95
2023-09-01T18:37:32.393Z,4.20
2023-09-01T18:39:40.839Z,2.45
2023-09-01T18:41:50.270Z,2.35
2023-09-01T18:44:01.355Z,2.15
2023-09-01T18:46:09.561Z,2.50
2023-09-01T18:48:27.563Z,2.35
2023-09-01T18:50:33.082Z,2.55
2023-09-01T18:52:41.102Z,2.60
2023-09-01T18:54:49.602Z,2.20
2023-09-01T18:56:59.281Z,2.15
2023-09-01T18:59:10.765Z,1.63
2023-09-01T19:01:21.638Z,2.00
2023-09-01T19:03:30.408Z,1.63
2023-09-01T19:05:41.722Z,1.77
2023-09-01T19:07:47.438Z,1.95
2023-09-01T19:09:56.051Z,1.58
2023-09-01T19:12:04.483Z,2.38
2023-09-01T19:14:21.097Z,2.22
2023-09-01T19:16:30.086Z,2.15
2023-09-01T19:18:41.967Z,1.92
2023-09-01T19:20:51.635Z,2.22
2023-09-01T19:23:05.518Z,2.13
2023-09-01T19:25:15.059Z,2.05
2023-09-01T19:27:24.612Z,2.45
2023-09-01T19:29:35.730Z,2.40
2023-09-01T19:31:53.183Z,3.97
2023-09-01T19:34:07.364Z,2.70
2023-09-01T19:36:21.158Z,2.65
2023-09-01T19:38:33.650Z,2.60
2023-09-01T19:40:53.683Z,2.00
2023-09-01T19:43:27.834Z,1.70
2023-09-01T19:52:43.845Z,2.30
2023-09-01T19:54:54.208Z,2.67
2023-09-01T19:57:03.610Z,2.10
2023-09-01T19:59:11.380Z,2.05
2023-09-01T20:01:41.637Z,1.92
2023-09-01T20:04:01.230Z,2.17
2023-09-01T20:06:27.380Z,2.35
2023-09-01T20:08:45.002Z,2.17
2023-09-01T20:10:53.819Z,2.70
2023-09-01T20:13:29.068Z,2.25
2023-09-01T20:15:50.806Z,2.35
2023-09-01T20:21:09.102Z,1.70
2023-09-01T20:23:35.913Z,2.17
2023-09-01T20:25:49.339Z,1.90
2023-09-01T20:28:15.313Z,2.00
2023-09-01T20:33:05.963Z,2.25
2023-09-01T20:35:46.719Z,1.98
2023-09-01T20:43:15.533Z,1.90
2023-09-01T20:46:01.029Z,2.55
2023-09-01T20:48:36.847Z,2.30
2023-09-01T20:50:51.659Z,2.42
2023-09-01T20:53:09.381Z,2.35
2023-09-01T20:55:26.884Z,2.20
2023-09-01T20:57:55.257Z,2.88
2023-09-01T21:00:18.008Z,2.72
2023-09-01T21:02:54.655Z,2.00
2023-09-01T21:05:12.771Z,2.63
2023-09-01T21:07:25.956Z,2.33
2023-09-01T21:09:46.726Z,2.90
2023-09-01T21:11:56.917Z,2.47
2023-09-01T21:14:06.209Z,1.88
2023-09-01T21:16:22.521Z,2.58
2023-09-01T21:18:38.205Z,2.60
2023-09-01T21:21:12.855Z,2.15
2023-09-01T21:23:26.342Z,2.30
2023-09-01T21:25:39.876Z,2.63
2023-09-01T21:27:51.665Z,2.58
2023-09-01T21:30:20.995Z,1.70
2023-09-01T21:32:33.075Z,2.10
2023-09-01T21:34:43.039Z,2.33
2023-09-01T21:36:55.135Z,2.67
2023-09-01T21:39:17.556Z,2.72
2023-09-01T21:41:27.857Z,2.40
2023-09-01T21:43:36.575Z,3.03
2023-09-01T21:45:47.325Z,2.72
2023-09-01T21:48:04.037Z,3.45
2023-09-01T21:50:28.617Z,2.85
2023-09-01T21:56:37.660Z,2.83
2023-09-01T21:59:39.965Z,3.10
2023-09-01T22:02:08.582Z,3.40
2023-09-01T22:04:29.287Z,2.80
2023-09-01T22:06:40.356Z,2.88
2023-09-01T22:09:05.333Z,3.05
2023-09-01T22:11:25.682Z,2.60
2023-09-01T22:13:56.786Z,2.00
2023-09-01T22:16:21.223Z,2.60
2023-09-01T22:18:42.184Z,2.70
2023-09-01T22:20:53.915Z,2.80
2023-09-01T22:23:02.243Z,2.85
2023-09-01T22:25:13.667Z,3.15
2023-09-01T22:27:22.334Z,2.80
2023-09-01T22:29:32.377Z,2.80
2023-09-01T22:31:43.206Z,3.58
2023-09-01T22:33:52.965Z,3.15
2023-09-01T22:36:01.892Z,2.90
2023-09-01T22:38:27.360Z,2.90
2023-09-01T22:40:40.600Z,2.90
2023-09-01T22:42:51.587Z,2.70
2023-09-01T22:45:17.275Z,3.50
2023-09-01T22:47:44.738Z,2.90
2023-09-01T22:49:50.719Z,3.00
2023-09-01T22:51:59.672Z,3.60
2023-09-01T22:54:11.550Z,3.13
2023-09-01T22:56:22.294Z,2.60
2023-09-01T22:58:31.177Z,3.38
2023-09-01T23:00:41.371Z,3.20
2023-09-01T23:02:50.826Z,2.72
2023-09-01T23:05:17.946Z,2.58
2023-09-01T23:10:03.291Z,2.80
2023-09-01T23:12:17.731Z,2.17
2023-09-01T23:14:46.571Z,2.97
2023-09-01T23:17:02.955Z,3.00
2023-09-01T23:19:17.664Z,2.55
2023-09-01T23:21:34.566Z,3.33
2023-09-01T23:23:55.719Z,2.67
2023-09-01T23:26:10.214Z,2.20
2023-09-01T23:29:16.290Z,3.13
2023-09-01T23:37:42.191Z,2.67
2023-09-01T23:40:00.811Z,2.25
2023-09-01T23:42:28.706Z,2.20
2023-09-01T23:45:14.536Z,2.65
2023-09-01T23:47:28.756Z,3.00
2023-09-01T23:49:35.064Z,2.83
2023-09-01T23:51:46.841Z,2.50
2023-09-01T23:53:55.702Z,2.15
2023-09-01T23:56:09.270Z,2.55
2023-09-01T23:58:29.498Z,2.60
